Archiv-/Tagesdaten

--Timestamp---	Temp	Chill	HIndex	Humid	Dewpt	 Wind 	HiWind	WindDir	Rain 	Barom	Solar	 ET  	 UV 
--------------	----	-----	------	-----	-----	------	------	-------	-----	-----	-----	-----	----
20110825 00:00	20.8	20.8	20.8	82	17.6	5	6	292	0.0	1013.9	0	0.025	0.0
20110825 00:05	20.8	20.8	20.8	82	17.6	10	18	292	0.0	1014.5	0	0.000	0.0
20110825 00:10	20.8	20.8	20.8	83	17.8	14	24	292	0.0	1015.2	0	0.000	0.0
20110825 00:15	20.7	20.7	20.7	83	17.7	11	24	270	0.0	1015.5	0	0.000	0.0
20110825 00:20	20.4	20.4	20.4	83	17.5	23	47	270	1.4	1016.2	0	0.000	0.0
20110825 00:25	19.8	19.8	19.8	86	17.4	21	35	270	4.0	1016.5	0	0.000	0.0
20110825 00:30	19.3	19.3	19.3	87	17.1	19	29	292	3.0	1015.6	0	0.000	0.0
20110825 00:35	18.8	18.8	18.8	88	16.8	21	34	292	1.2	1015.7	0	0.000	0.0
20110825 00:40	18.6	18.6	18.6	89	16.7	18	31	315	1.0	1015.5	0	0.000	0.0
20110825 00:45	18.4	18.4	18.4	90	16.8	3	8	292	0.6	1015.7	0	0.000	0.0
20110825 00:50	18.3	18.3	18.3	90	16.7	10	16	270	0.2	1016.2	0	0.000	0.0
20110825 00:55	18.3	18.3	18.3	91	16.8	8	14	292	0.2	1016.2	0	0.000	0.0
20110825 01:00	18.3	18.3	18.3	91	16.8	6	11	292	0.2	1016.0	0	0.025	0.0
20110825 01:05	18.3	18.3	18.3	91	16.8	8	18	315	0.0	1015.5	0	0.000	0.0
20110825 01:10	18.3	18.3	18.3	92	17.0	2	6	22	0.2	1015.2	0	0.000	0.0
20110825 01:15	18.3	18.3	18.3	92	17.0	0	8	0	0.0	1015.9	0	0.000	0.0
20110825 01:20	18.4	18.4	18.4	92	17.1	3	6	248	0.0	1016.3	0	0.000	0.0
20110825 01:25	18.4	18.4	18.4	92	17.1	3	8	248	0.0	1016.2	0	0.000	0.0
20110825 01:30	18.4	18.4	18.4	92	17.1	0	5	248	0.0	1016.3	0	0.000	0.0
20110825 01:35	18.4	18.4	18.4	92	17.1	0	0	-100000	0.0	1016.5	0	0.000	0.0
20110825 01:40	18.4	18.4	18.4	92	17.1	0	2	248	0.0	1016.6	0	0.000	0.0
20110825 01:45	18.4	18.4	18.4	92	17.1	0	2	248	0.0	1016.7	0	0.000	0.0
20110825 01:50	18.4	18.4	18.4	93	17.3	0	5	248	0.0	1016.7	0	0.000	0.0
20110825 01:55	18.4	18.4	18.4	93	17.3	0	2	248	0.0	1016.6	0	0.000	0.0
20110825 02:00	18.4	18.4	18.4	93	17.3	0	0	-100000	0.0	1016.5	0	0.000	0.0
20110825 02:05	18.4	18.4	18.4	93	17.3	0	2	248	0.0	1016.4	0	0.000	0.0
20110825 02:10	18.5	18.5	18.5	93	17.3	0	5	248	0.0	1016.5	0	0.000	0.0
20110825 02:15	18.6	18.6	18.6	93	17.4	2	5	248	0.0	1016.5	0	0.000	0.0
20110825 02:20	18.6	18.6	18.6	93	17.4	3	6	248	0.0	1016.5	0	0.000	0.0
20110825 02:25	18.6	18.6	18.6	93	17.4	2	6	248	0.0	1016.4	0	0.000	0.0
20110825 02:30	18.6	18.6	18.6	93	17.5	0	2	248	0.0	1016.2	0	0.000	0.0
20110825 02:35	18.6	18.6	18.6	93	17.5	0	2	248	0.0	1016.1	0	0.000	0.0
20110825 02:40	18.7	18.7	18.7	93	17.5	0	5	248	0.0	1016.1	0	0.000	0.0
20110825 02:45	18.7	18.7	18.7	93	17.5	0	3	248	0.0	1016.1	0	0.000	0.0
20110825 02:50	18.7	18.7	18.7	93	17.6	0	2	248	0.0	1016.2	0	0.000	0.0
20110825 02:55	18.7	18.7	18.7	93	17.5	2	5	248	0.0	1016.2	0	0.000	0.0
20110825 03:00	18.7	18.7	18.7	93	17.5	5	10	248	0.0	1016.3	0	0.000	0.0
20110825 03:05	18.6	18.6	18.6	93	17.5	5	8	248	0.0	1016.4	0	0.000	0.0
20110825 03:10	18.6	18.6	18.6	93	17.5	5	10	202	0.0	1016.3	0	0.000	0.0
20110825 03:15	18.7	18.7	18.7	93	17.5	2	8	135	1.4	1015.9	0	0.000	0.0
20110825 03:20	18.6	18.6	18.6	93	17.5	2	6	135	0.4	1015.4	0	0.000	0.0
20110825 03:25	18.6	18.6	18.6	93	17.4	3	6	68	0.0	1015.3	0	0.000	0.0
20110825 03:30	18.6	18.6	18.6	93	17.4	0	2	68	0.0	1015.4	0	0.000	0.0
20110825 03:35	18.5	18.5	18.5	93	17.3	0	2	68	0.0	1015.5	0	0.000	0.0
20110825 03:40	18.4	18.4	18.4	93	17.3	0	2	68	0.0	1015.5	0	0.000	0.0
20110825 03:45	18.5	18.5	18.5	93	17.3	0	5	68	0.0	1015.4	0	0.000	0.0
20110825 03:50	18.5	18.5	18.5	93	17.3	6	10	112	0.0	1015.0	0	0.000	0.0
20110825 03:55	18.4	18.4	18.4	93	17.3	3	10	112	0.0	1015.2	0	0.000	0.0
20110825 04:00	18.4	18.4	18.4	93	17.2	2	5	158	0.0	1015.2	0	0.000	0.0
20110825 04:05	18.3	18.3	18.3	93	17.2	3	8	112	0.0	1015.3	0	0.000	0.0
20110825 04:10	18.3	18.3	18.3	93	17.1	2	5	112	0.0	1015.4	0	0.000	0.0
20110825 04:15	18.2	18.2	18.2	93	17.1	0	5	112	0.0	1015.3	0	0.000	0.0
20110825 04:20	18.2	18.2	18.2	93	17.0	0	3	112	0.0	1015.4	0	0.000	0.0
20110825 04:25	18.2	18.2	18.2	93	17.0	0	5	112	0.0	1015.4	0	0.000	0.0
20110825 04:30	18.1	18.1	18.1	93	17.0	0	3	112	0.0	1015.3	0	0.000	0.0
20110825 04:35	18.1	18.1	18.1	93	16.9	2	6	112	0.0	1015.2	0	0.000	0.0
20110825 04:40	17.9	17.9	17.9	93	16.8	2	6	112	0.0	1015.4	0	0.000	0.0
20110825 04:45	17.9	17.9	17.9	93	16.7	2	6	112	0.0	1015.3	0	0.000	0.0
20110825 04:50	17.8	17.8	17.8	93	16.7	0	5	112	0.0	1015.3	0	0.000	0.0
20110825 04:55	17.8	17.8	17.8	93	16.6	0	5	112	0.0	1015.3	0	0.000	0.0
20110825 05:00	17.8	17.8	17.8	93	16.6	2	5	112	0.0	1015.3	-100000	0.000	0.0
20110825 05:05	17.8	17.8	17.8	94	16.8	3	6	135	0.0	1015.4	0	0.000	0.0
20110825 05:10	17.8	17.8	17.8	94	16.8	2	5	135	0.0	1015.3	0	0.000	0.0
20110825 05:15	17.7	17.7	17.7	94	16.7	3	8	135	0.0	1015.3	0	0.000	0.0
20110825 05:20	17.7	17.7	17.7	94	16.7	2	5	135	0.0	1015.2	0	0.000	0.0
20110825 05:25	17.7	17.7	17.7	93	16.5	5	10	135	0.0	1015.1	0	0.000	0.0
20110825 05:30	17.6	17.6	17.6	93	16.4	3	8	135	0.0	1015.1	0	0.000	0.0
20110825 05:35	17.6	17.6	17.6	93	16.4	3	6	135	0.0	1015.0	0	0.000	0.0
20110825 05:40	17.4	17.4	17.4	94	16.5	3	6	135	0.0	1015.0	0	0.000	0.0
20110825 05:45	17.4	17.4	17.4	94	16.5	3	8	135	0.0	1015.0	0	0.000	0.0
20110825 05:50	17.3	17.3	17.3	94	16.4	3	8	135	0.0	1015.0	0	0.000	0.0
20110825 05:55	17.3	17.3	17.3	93	16.2	3	6	135	0.0	1014.9	0	0.000	0.0
20110825 06:00	17.3	17.3	17.3	94	16.3	2	6	135	0.0	1014.9	0	0.000	0.0
20110825 06:05	17.3	17.3	17.3	94	16.3	2	6	135	0.0	1014.9	0	0.000	0.0
20110825 06:10	17.3	17.3	17.3	94	16.3	2	8	135	0.0	1014.8	0	0.000	0.0
20110825 06:15	17.2	17.2	17.2	94	16.2	3	10	135	0.0	1014.8	0	0.000	0.0
20110825 06:20	17.2	17.2	17.2	94	16.2	5	8	135	0.0	1014.8	0	0.000	0.0
20110825 06:25	17.2	17.2	17.2	94	16.2	5	8	135	0.2	1014.8	0	0.000	0.0
20110825 06:30	17.2	17.2	17.2	94	16.2	5	6	135	0.0	1014.7	3	0.000	0.0
20110825 06:35	17.2	17.2	17.2	94	16.2	5	6	135	0.0	1014.6	7	0.000	0.0
20110825 06:40	17.2	17.2	17.2	94	16.2	3	6	135	0.0	1014.6	11	0.000	0.0
20110825 06:45	17.2	17.2	17.2	94	16.2	3	8	135	0.0	1014.6	13	0.000	0.0
20110825 06:50	17.2	17.2	17.2	94	16.2	3	8	135	0.0	1014.5	17	0.000	0.0
20110825 06:55	17.2	17.2	17.2	94	16.2	5	10	135	0.0	1014.5	20	0.000	0.0
20110825 07:00	17.2	17.2	17.2	94	16.2	3	6	135	0.0	1014.5	23	0.000	0.0
20110825 07:05	17.2	17.2	17.2	94	16.2	0	5	135	0.0	1014.8	25	0.000	0.0
20110825 07:10	17.2	17.2	17.2	94	16.2	3	6	135	0.0	1014.8	27	0.000	0.0
20110825 07:15	17.3	17.3	17.3	94	16.3	3	8	135	0.0	1014.8	31	0.000	0.0
20110825 07:20	17.3	17.3	17.3	94	16.3	2	8	225	0.0	1014.7	33	0.000	0.0
20110825 07:25	17.3	17.3	17.3	94	16.4	2	5	225	0.0	1014.8	34	0.000	0.0
20110825 07:30	17.4	17.4	17.4	94	16.5	3	6	225	0.0	1014.8	36	0.000	0.0
20110825 07:35	17.5	17.5	17.5	94	16.5	2	8	90	0.0	1014.8	38	0.000	0.0
20110825 07:40	17.6	17.6	17.6	94	16.6	0	3	112	0.0	1014.8	45	0.000	0.0
20110825 07:45	17.8	17.8	17.8	94	16.8	3	8	112	0.0	1014.7	131	0.000	0.0
20110825 07:50	18.0	18.0	18.0	94	17.0	5	10	112	0.0	1014.7	151	0.000	0.0
20110825 07:55	18.2	18.2	18.2	94	17.2	6	11	112	0.0	1014.5	165	0.000	0.3
20110825 08:00	18.3	18.3	18.3	94	17.3	5	10	112	0.0	1014.5	178	0.051	0.5
20110825 08:05	18.4	18.4	18.4	94	17.5	5	10	135	0.0	1014.5	193	0.000	0.5
20110825 08:10	18.7	18.7	18.7	94	17.7	3	10	158	0.0	1014.4	206	0.000	0.6
20110825 08:15	18.8	18.8	18.8	93	17.6	3	8	112	0.0	1014.3	216	0.000	0.7
20110825 08:20	18.9	18.9	18.9	93	17.8	5	8	135	0.0	1014.2	229	0.000	0.8
20110825 08:25	19.1	19.1	19.1	92	17.8	5	11	135	0.0	1014.2	244	0.000	0.8
20110825 08:30	19.3	19.3	19.3	91	17.8	5	10	112	0.0	1014.0	256	0.000	0.9
20110825 08:35	19.4	19.4	19.4	90	17.7	5	10	90	0.0	1013.9	268	0.000	1.0
20110825 08:40	19.7	19.7	19.7	90	18.0	2	8	158	0.0	1013.9	280	0.000	1.1
20110825 08:45	20.0	20.0	20.0	88	17.9	2	6	158	0.0	1013.8	293	0.000	1.2
20110825 08:50	20.2	20.2	20.2	87	17.9	5	10	158	0.0	1013.8	310	0.000	1.2
20110825 08:55	20.3	20.3	20.3	87	18.0	3	8	135	0.0	1013.7	328	0.000	1.3
20110825 09:00	20.5	20.5	20.5	86	18.1	8	11	135	0.0	1013.7	-100000	0.152	1.5
20110825 09:05	20.6	20.6	20.6	85	17.9	10	16	112	0.0	1014.0	365	0.000	1.6
20110825 09:10	20.6	20.6	20.6	85	17.9	8	14	112	0.0	1014.0	298	0.000	1.7
20110825 09:15	20.6	20.6	20.6	85	18.0	6	14	90	0.0	1013.8	64	0.000	1.5
20110825 09:20	20.6	20.6	20.6	84	17.8	8	18	90	0.0	1013.9	63	0.000	1.5
20110825 09:25	20.7	20.7	20.7	85	18.1	8	14	135	0.0	1013.8	63	0.000	1.6
20110825 09:30	20.8	20.8	20.8	84	18.0	10	18	112	0.0	1013.5	65	0.000	1.7
20110825 09:35	21.0	21.0	21.0	83	18.0	10	18	112	0.0	1013.5	65	0.000	1.8
20110825 09:40	21.2	21.2	21.2	83	18.2	10	19	112	0.0	1013.4	65	0.000	1.9
20110825 09:45	21.4	21.4	21.4	82	18.2	8	16	112	0.0	1013.3	67	0.000	1.9
20110825 09:50	21.5	21.5	21.5	81	18.1	8	18	112	0.0	1013.4	67	0.000	2.0
20110825 09:55	21.7	21.7	21.7	80	18.1	10	14	112	0.0	1013.4	69	0.000	2.1
20110825 10:00	21.9	21.9	21.9	79	18.1	8	18	112	0.0	1013.4	70	0.076	2.2
20110825 10:05	22.1	22.1	22.1	80	18.4	8	14	112	0.0	1013.4	72	0.000	2.3
20110825 10:10	22.2	22.2	22.2	78	18.2	6	16	112	0.0	1013.5	72	0.000	2.3
20110825 10:15	22.3	22.3	22.3	77	18.1	8	14	112	0.0	1013.5	74	0.000	2.4
20110825 10:20	22.5	22.5	22.5	77	18.3	8	16	112	0.0	1013.5	74	0.000	2.5
20110825 10:25	22.7	22.7	22.7	78	18.7	3	10	135	0.0	1013.4	76	0.000	2.6
20110825 10:30	22.8	22.8	22.8	75	18.2	8	16	112	0.0	1013.4	78	0.000	2.7
20110825 10:35	22.9	22.9	22.9	74	18.1	8	13	112	0.0	1013.5	80	0.000	2.8
20110825 10:40	23.1	23.1	23.1	75	18.4	5	11	112	0.0	1013.4	90	0.000	2.9
20110825 10:45	23.2	23.2	23.2	75	18.5	3	8	68	0.0	1013.3	484	0.000	3.2
20110825 10:50	23.4	23.4	23.4	74	18.5	6	11	90	0.0	1013.2	604	0.000	4.3
20110825 10:55	23.5	23.5	23.5	73	18.4	6	11	112	0.0	1013.2	614	0.000	4.6
20110825 11:00	23.6	23.6	23.6	72	18.3	6	11	90	0.0	1013.1	624	0.178	4.8
20110825 11:05	23.8	23.8	23.8	72	18.4	6	11	68	0.0	1013.1	634	0.000	4.9
20110825 11:10	24.0	24.0	25.0	69	18.0	8	16	112	0.0	1013.1	643	0.000	5.1
20110825 11:15	24.2	24.2	25.2	69	18.2	8	16	112	0.0	1013.2	652	0.000	5.2
20110825 11:20	24.4	24.4	25.4	69	18.4	6	14	112	0.0	1013.2	661	0.000	5.4
20110825 11:25	24.6	24.6	25.5	70	18.8	6	14	112	0.0	1013.1	669	0.000	5.6
20110825 11:30	24.5	24.5	25.4	70	18.7	6	16	68	0.0	1013.0	677	0.000	5.7
20110825 11:35	24.5	24.5	25.4	70	18.7	8	16	68	0.0	1013.0	683	0.000	5.8
20110825 11:40	24.6	24.6	25.5	69	18.5	6	16	90	0.0	1012.9	692	0.000	6.0
20110825 11:45	24.8	24.8	25.8	70	19.0	6	16	135	0.0	1012.7	698	0.000	6.1
20110825 11:50	25.1	25.1	26.1	68	18.8	8	18	90	0.0	1012.7	705	0.000	6.3
20110825 11:55	25.1	25.1	26.1	67	18.5	8	16	90	0.0	1012.7	710	0.000	6.4
20110825 12:00	24.9	24.9	25.9	67	18.4	6	14	68	0.0	1012.8	715	0.457	6.4
20110825 12:05	25.1	25.1	26.1	66	18.3	6	16	90	0.0	1012.9	721	0.000	6.6
20110825 12:10	25.3	25.3	26.3	66	18.5	10	16	112	0.0	1012.8	729	0.000	6.7
20110825 12:15	25.4	25.4	26.4	66	18.6	6	11	90	0.0	1012.7	732	0.000	6.8
20110825 12:20	25.5	25.5	26.5	64	18.2	8	16	135	0.0	1012.7	740	0.000	6.9
20110825 12:25	25.7	25.7	26.8	65	18.6	8	18	112	0.0	1012.6	744	0.000	7.0
20110825 12:30	25.9	25.9	27.0	64	18.6	10	18	112	0.0	1012.4	747	0.000	7.1
20110825 12:35	26.1	26.1	27.2	65	19.0	10	19	112	0.0	1012.3	752	0.000	7.3
20110825 12:40	26.2	26.2	27.3	65	19.1	6	16	112	0.0	1012.3	753	0.000	7.4
20110825 12:45	26.2	26.2	27.4	65	19.1	8	13	90	0.0	1012.3	756	0.000	7.4
20110825 12:50	26.4	26.4	27.7	66	19.5	8	14	112	0.0	1012.2	758	0.000	7.5
20110825 12:55	26.4	26.4	27.7	66	19.6	8	18	112	0.0	1012.1	760	0.000	7.5
20110825 13:00	26.6	26.6	27.8	65	19.4	10	19	135	0.0	1012.1	-100000	0.508	7.6
20110825 13:05	26.7	26.7	28.1	65	19.6	10	19	135	0.0	1012.1	761	0.000	7.5
20110825 13:10	26.8	26.8	28.3	66	19.9	8	19	90	0.0	1011.9	761	0.000	7.5
20110825 13:15	26.9	26.9	28.2	64	19.5	10	19	90	0.0	1011.9	763	0.000	7.6
20110825 13:20	26.8	26.8	28.2	65	19.7	10	19	90	0.0	1011.8	762	0.000	7.6
20110825 13:25	26.9	26.9	28.4	65	19.8	10	21	112	0.0	1011.7	762	0.000	7.6
20110825 13:30	27.0	27.0	28.5	65	19.8	8	19	90	0.0	1011.6	764	0.000	7.6
20110825 13:35	27.2	27.2	29.0	67	20.5	8	19	90	0.0	1011.6	761	0.000	7.6
20110825 13:40	27.0	27.0	28.5	65	19.8	11	23	68	0.0	1011.4	760	0.000	7.5
20110825 13:45	27.1	27.1	28.5	65	19.9	10	21	135	0.0	1011.4	761	0.000	7.5
20110825 13:50	27.3	27.3	28.8	64	19.9	8	16	112	0.0	1011.4	759	0.000	7.5
20110825 13:55	27.3	27.3	29.0	65	20.2	10	21	112	0.0	1011.4	758	0.000	7.4
20110825 14:00	27.5	27.5	29.2	65	20.3	6	13	90	0.0	1011.3	754	0.533	7.3
20110825 14:05	27.6	27.6	29.2	64	20.1	8	21	112	0.0	1011.1	751	0.000	7.3
20110825 14:10	27.8	27.8	29.7	65	20.6	6	14	112	0.0	1011.1	748	0.000	7.2
20110825 14:15	28.0	28.0	29.8	63	20.3	8	14	135	0.0	1011.0	745	0.000	7.1
20110825 14:20	28.1	28.1	29.7	61	19.9	8	19	135	0.0	1011.0	739	0.000	7.0
20110825 14:25	28.1	28.1	29.7	61	19.9	13	19	112	0.0	1011.1	735	0.000	6.9
20110825 14:30	28.2	28.2	29.8	61	19.9	10	18	90	0.0	1011.0	734	0.000	6.8
20110825 14:35	28.2	28.2	29.9	61	20.0	8	23	112	0.0	1011.1	727	0.000	6.7
20110825 14:40	28.3	28.3	30.3	63	20.6	8	16	90	0.0	1010.9	720	0.000	6.6
20110825 14:45	28.2	28.2	30.2	64	20.7	10	19	68	0.0	1010.9	711	0.000	6.4
20110825 14:50	28.1	28.1	30.2	65	20.9	8	16	68	0.0	1010.9	704	0.000	6.3
20110825 14:55	28.1	28.1	30.1	65	20.8	10	18	68	0.0	1010.9	696	0.000	6.2
20110825 15:00	28.1	28.1	30.1	65	20.8	6	16	112	0.0	1010.8	693	0.533	6.0
20110825 15:05	28.2	28.2	30.2	63	20.5	8	16	68	0.0	1010.8	688	0.000	5.9
20110825 15:10	28.3	28.3	30.2	62	20.3	8	18	68	0.0	1010.9	678	0.000	5.8
20110825 15:15	28.4	28.4	30.3	62	20.4	8	16	90	0.0	1010.8	671	0.000	5.6
20110825 15:20	28.4	28.4	30.4	62	20.4	11	18	68	0.0	1010.8	662	0.000	5.5
20110825 15:25	28.4	28.4	30.3	62	20.4	8	18	68	0.0	1010.9	656	0.000	5.3
20110825 15:30	28.3	28.3	30.5	64	20.9	10	18	68	0.0	1010.7	651	0.000	5.2
20110825 15:35	28.4	28.4	30.7	65	21.2	8	14	45	0.0	1010.7	641	0.000	5.0
20110825 15:40	28.4	28.4	30.7	65	21.2	10	16	45	0.0	1010.7	630	0.000	4.9
20110825 15:45	28.3	28.3	30.9	67	21.6	11	18	68	0.0	1010.6	621	0.000	4.8
20110825 15:50	28.4	28.4	30.8	65	21.2	10	16	68	0.0	1010.6	613	0.000	4.6
20110825 15:55	28.4	28.4	30.8	65	21.2	8	19	68	0.0	1010.5	603	0.000	4.4
20110825 16:00	28.3	28.3	30.5	65	21.1	13	19	68	0.0	1010.5	593	0.483	4.3
20110825 16:05	28.3	28.3	30.4	64	20.8	11	18	68	0.0	1010.5	583	0.000	4.1
20110825 16:10	28.1	28.1	30.2	65	20.9	13	26	68	0.0	1010.5	569	0.000	4.0
20110825 16:15	28.0	28.0	30.0	65	20.8	14	23	45	0.0	1010.4	563	0.000	3.8
20110825 16:20	27.9	27.9	29.9	65	20.7	13	21	68	0.0	1010.4	552	0.000	3.6
20110825 16:25	27.9	27.9	29.9	65	20.7	13	23	45	0.0	1010.4	539	0.000	3.5
20110825 16:30	28.1	28.1	30.0	64	20.6	13	21	68	0.0	1010.4	528	0.000	3.3
20110825 16:35	28.1	28.1	29.9	62	20.1	10	19	68	0.0	1010.4	515	0.000	3.2
20110825 16:40	28.2	28.2	30.0	62	20.2	11	19	68	0.0	1010.3	501	0.000	3.0
20110825 16:45	28.3	28.3	30.0	61	20.0	10	18	68	0.0	1010.4	489	0.000	2.9
20110825 16:50	28.2	28.2	30.0	62	20.2	10	18	68	0.0	1010.4	475	0.000	2.7
20110825 16:55	28.3	28.3	30.1	61	20.1	11	21	68	0.0	1010.3	464	0.000	2.6
20110825 17:00	28.3	28.3	30.0	61	20.0	13	23	68	0.0	1010.3	452	0.406	2.4
20110825 17:05	28.3	28.3	30.1	62	20.3	6	18	68	0.0	1010.2	437	0.000	2.3
20110825 17:10	28.2	28.2	29.8	60	19.7	11	21	68	0.0	1010.2	425	0.000	2.2
20110825 17:15	28.2	28.2	29.9	61	20.0	10	19	68	0.0	1010.2	414	0.000	2.1
20110825 17:20	28.3	28.3	29.9	60	19.8	10	21	68	0.0	1010.1	401	0.000	1.9
20110825 17:25	28.3	28.3	29.9	60	19.8	10	16	68	0.0	1010.1	386	0.000	1.8
20110825 17:30	28.3	28.3	30.2	62	20.3	10	19	68	0.0	1010.0	372	0.000	1.7
20110825 17:35	28.3	28.3	30.1	62	20.3	10	18	68	0.0	1010.1	357	0.000	1.6
20110825 17:40	28.3	28.3	30.1	61	20.1	8	16	68	0.0	1010.1	343	0.000	1.4
20110825 17:45	28.3	28.3	29.8	59	19.5	8	16	68	0.0	1010.1	330	0.000	1.3
20110825 17:50	28.3	28.3	29.9	60	19.8	8	14	68	0.0	1010.0	319	0.000	1.3
20110825 17:55	28.3	28.3	29.9	60	19.8	8	16	90	0.0	1010.0	304	0.000	1.2
20110825 18:00	28.2	28.2	29.6	59	19.4	11	19	68	0.0	1010.0	292	0.305	1.1
20110825 18:05	28.1	28.1	29.6	60	19.6	6	16	68	0.0	1009.9	281	0.000	0.9
20110825 18:10	28.2	28.2	29.8	61	19.9	6	11	68	0.0	1010.0	273	0.000	0.9
20110825 18:15	28.1	28.1	29.7	61	19.9	6	16	68	0.0	1010.0	253	0.000	0.8
20110825 18:20	28.0	28.0	29.4	60	19.5	6	16	90	0.0	1010.0	238	0.000	0.8
20110825 18:25	27.9	27.9	29.4	60	19.4	5	11	68	0.0	1010.0	217	0.000	0.7
20110825 18:30	27.9	27.9	29.4	61	19.7	5	11	90	0.0	1010.1	193	0.000	0.6
20110825 18:35	27.8	27.8	29.1	60	19.3	6	13	68	0.0	1010.2	177	0.000	0.6
20110825 18:40	27.7	27.7	29.3	62	19.8	3	8	90	0.0	1010.2	142	0.000	0.5
20110825 18:45	27.6	27.6	29.1	62	19.7	2	6	68	0.0	1010.1	145	0.000	0.2
20110825 18:50	27.4	27.4	29.0	64	20.0	3	6	68	0.0	1010.1	108	0.000	0.0
20110825 18:55	27.3	27.3	28.8	64	19.9	2	5	68	0.0	1010.2	58	0.000	0.0
20110825 19:00	27.2	27.2	28.9	66	20.3	2	6	68	0.0	1010.1	62	0.152	0.0
20110825 19:05	27.1	27.1	28.5	65	19.9	6	10	45	0.0	1010.1	70	0.000	0.0
20110825 19:10	27.0	27.0	28.5	66	20.1	3	8	45	0.0	1010.0	75	0.000	0.0
20110825 19:15	26.9	26.9	28.4	67	20.2	2	5	45	0.0	1010.2	76	0.000	0.0
20110825 19:20	26.8	26.8	28.4	67	20.2	3	10	45	0.0	1010.1	67	0.000	0.0
20110825 19:25	26.7	26.7	28.2	67	20.1	3	8	45	0.0	1010.1	52	0.000	0.0
20110825 19:30	26.6	26.6	28.0	67	20.0	3	6	45	0.0	1010.1	40	0.000	0.0
20110825 19:35	26.4	26.4	27.8	68	20.0	2	5	45	0.0	1010.2	35	0.000	0.0
20110825 19:40	26.3	26.3	27.6	68	19.9	3	6	45	0.0	1010.3	31	0.000	0.0
20110825 19:45	26.1	26.1	27.4	69	20.0	2	6	45	0.0	1010.3	28	0.000	0.0
20110825 19:50	25.9	25.9	27.2	69	19.8	3	6	45	0.0	1010.3	23	0.000	0.0
20110825 19:55	25.8	25.8	27.0	69	19.6	3	6	45	0.0	1010.4	16	0.000	0.0
20110825 20:00	25.6	25.6	26.7	69	19.5	3	8	45	0.0	1010.5	9	0.051	0.0
20110825 20:05	25.4	25.4	26.5	70	19.6	2	6	68	0.0	1010.3	4	0.000	0.0
20110825 20:10	25.2	25.2	26.3	70	19.3	3	6	68	0.0	1010.4	0	0.000	0.0
20110825 20:15	25.1	25.1	26.0	71	19.4	3	6	45	0.0	1010.4	0	0.000	0.0
20110825 20:20	24.8	24.8	25.8	71	19.2	3	6	45	0.0	1010.5	0	0.000	0.0
20110825 20:25	24.6	24.6	25.5	72	19.2	0	5	45	0.0	1010.7	0	0.000	0.0
20110825 20:30	24.4	24.4	25.3	73	19.3	0	2	45	0.0	1010.6	0	0.000	0.0
20110825 20:35	24.2	24.2	25.0	74	19.3	0	3	45	0.0	1010.7	0	0.000	0.0
20110825 20:40	24.1	24.1	24.8	74	19.1	0	3	68	0.0	1010.7	0	0.000	0.0
20110825 20:45	23.9	23.9	24.7	74	19.0	0	3	68	0.0	1010.7	0	0.000	0.0
20110825 20:50	23.8	23.8	23.8	74	18.9	0	2	68	0.0	1010.9	0	0.000	0.0
20110825 20:55	23.8	23.8	23.8	75	19.1	0	2	68	0.0	1010.9	0	0.000	0.0
20110825 21:00	23.7	23.7	23.7	76	19.2	0	2	68	0.0	1010.9	635	0.000	0.0
20110825 21:05	23.5	23.5	23.5	76	19.0	0	0	-100000	0.0	1010.9	0	0.000	0.0
20110825 21:10	23.3	23.3	23.3	77	19.1	0	2	68	0.0	1010.8	0	0.000	0.0
20110825 21:15	23.1	23.1	23.1	78	19.1	0	2	68	0.0	1010.9	0	0.000	0.0
20110825 21:20	22.9	22.9	22.9	77	18.7	0	2	68	0.0	1010.9	0	0.000	0.0
20110825 21:25	22.8	22.8	22.8	78	18.8	0	2	68	0.0	1010.8	0	0.000	0.0
20110825 21:30	22.8	22.8	22.8	78	18.7	0	2	68	0.0	1010.9	0	0.000	0.0
20110825 21:35	22.7	22.7	22.7	79	18.9	0	0	-100000	0.0	1011.0	0	0.000	0.0
20110825 21:40	22.6	22.6	22.6	80	19.0	0	2	68	0.0	1010.8	0	0.000	0.0
20110825 21:45	22.5	22.5	22.5	79	18.7	0	2	68	0.0	1010.8	0	0.000	0.0
20110825 21:50	22.4	22.4	22.4	80	18.8	0	2	68	0.0	1010.9	0	0.000	0.0
20110825 21:55	22.3	22.3	22.3	81	18.9	0	2	68	0.0	1010.9	0	0.000	0.0
20110825 22:00	22.2	22.2	22.2	81	18.8	0	0	-100000	0.0	1010.9	0	0.025	0.0
20110825 22:05	22.1	22.1	22.1	81	18.7	0	2	68	0.0	1010.7	0	0.000	0.0
20110825 22:10	21.9	21.9	21.9	81	18.5	0	0	-100000	0.0	1010.7	0	0.000	0.0
20110825 22:15	21.8	21.8	21.8	81	18.4	0	0	-100000	0.0	1010.7	0	0.000	0.0
20110825 22:20	21.7	21.7	21.7	81	18.3	0	0	-100000	0.0	1010.7	0	0.000	0.0
20110825 22:25	21.6	21.6	21.6	82	18.3	0	0	-100000	0.0	1010.7	0	0.000	0.0
20110825 22:30	21.4	21.4	21.4	82	18.2	0	0	-100000	0.0	1010.6	0	0.000	0.0
20110825 22:35	21.3	21.3	21.3	83	18.3	0	0	-100000	0.0	1010.7	0	0.000	0.0
20110825 22:40	21.2	21.2	21.2	83	18.2	0	0	-100000	0.0	1010.7	0	0.000	0.0
20110825 22:45	21.2	21.2	21.2	83	18.2	0	0	-100000	0.0	1010.7	0	0.000	0.0
20110825 22:50	21.2	21.2	21.2	83	18.2	0	0	-100000	0.0	1010.6	0	0.000	0.0
20110825 22:55	21.2	21.2	21.2	83	18.2	0	0	-100000	0.0	1010.6	0	0.000	0.0
20110825 23:00	21.1	21.1	21.1	83	18.1	0	2	68	0.0	1010.6	0	0.025	0.0
20110825 23:05	21.1	21.1	21.1	84	18.2	0	0	-100000	0.0	1010.5	0	0.000	0.0
20110825 23:10	21.0	21.0	21.0	83	18.0	0	0	-100000	0.0	1010.5	0	0.000	0.0
20110825 23:15	20.9	20.9	20.9	83	17.9	0	0	-100000	0.0	1010.5	0	0.000	0.0
20110825 23:20	20.9	20.9	20.9	83	17.9	0	2	68	0.0	1010.5	0	0.000	0.0
20110825 23:25	20.8	20.8	20.8	84	18.0	0	2	68	0.0	1010.4	0	0.000	0.0
20110825 23:30	20.8	20.8	20.8	84	18.0	0	2	68	0.0	1010.5	0	0.000	0.0
20110825 23:35	20.7	20.7	20.7	84	17.9	0	0	-100000	0.0	1010.5	0	0.000	0.0
20110825 23:40	20.7	20.7	20.7	84	17.9	0	2	68	0.0	1010.6	0	0.000	0.0
20110825 23:45	20.6	20.6	20.6	84	17.8	0	0	-100000	0.0	1010.5	0	0.000	0.0
20110825 23:50	20.6	20.6	20.6	85	17.9	0	0	-100000	0.0	1010.5	0	0.000	0.0
20110825 23:55	20.5	20.5	20.5	85	17.9	0	0	-100000	0.0	1010.5	0	0.000	0.0



Please note the license to use and transfer of this data:
http://creativecommons.org/licenses/by-nc-sa/3.0/deed.en

Bitte beachten sie die Lizenz zur Verwertung und Weitergabe der Daten:
http://creativecommons.org/licenses/by-nc-sa/3.0/deed.de

zurück zur Übersicht der Archivdaten (Monats und Tagesdaten)

Cookies helfen bei der Bereitstellung von Inhalten. Durch die Nutzung dieser Seiten erklärst du dich damit einverstanden, dass Cookies auf deinem Rechner gespeichert werden. Weitere Information